sensor_id;sensor_type;location;lat;lon;timestamp;pressure;altitude;pressure_sealevel;temperature;humidity
43161;BME280;40968;52.342;5.528;2023-03-24T00:00:58;99701.06;;;11.27;83.69
43161;BME280;40968;52.342;5.528;2023-03-24T00:03:26;99651.38;;;10.95;83.65
43161;BME280;40968;52.342;5.528;2023-03-24T00:05:55;99575.00;;;10.72;83.74
43161;BME280;40968;52.342;5.528;2023-03-24T00:08:22;99658.78;;;11.11;83.71
43161;BME280;40968;52.342;5.528;2023-03-24T00:10:49;99656.38;;;11.18;83.90
43161;BME280;40968;52.342;5.528;2023-03-24T00:13:17;99651.72;;;11.10;83.83
43161;BME280;40968;52.342;5.528;2023-03-24T00:15:44;99708.31;;;11.55;83.93
43161;BME280;40968;52.342;5.528;2023-03-24T00:18:13;99646.94;;;11.14;83.97
43161;BME280;40968;52.342;5.528;2023-03-24T00:20:41;99661.56;;;11.30;83.93
43161;BME280;40968;52.342;5.528;2023-03-24T00:23:08;99660.69;;;11.29;84.01
43161;BME280;40968;52.342;5.528;2023-03-24T00:25:35;99701.88;;;11.48;84.23
43161;BME280;40968;52.342;5.528;2023-03-24T00:28:02;99529.66;;;10.41;84.02
43161;BME280;40968;52.342;5.528;2023-03-24T00:30:30;99632.22;;;11.18;84.27
43161;BME280;40968;52.342;5.528;2023-03-24T00:32:57;99632.81;;;11.12;84.33
43161;BME280;40968;52.342;5.528;2023-03-24T00:35:26;99676.84;;;11.47;84.51
43161;BME280;40968;52.342;5.528;2023-03-24T00:37:54;99668.13;;;11.45;84.64
43161;BME280;40968;52.342;5.528;2023-03-24T00:40:21;99579.81;;;10.96;84.78
43161;BME280;40968;52.342;5.528;2023-03-24T00:42:49;99613.22;;;11.11;85.06
43161;BME280;40968;52.342;5.528;2023-03-24T00:45:18;99483.56;;;10.37;84.97
43161;BME280;40968;52.342;5.528;2023-03-24T00:47:47;99595.28;;;11.12;84.97
43161;BME280;40968;52.342;5.528;2023-03-24T00:50:18;99661.91;;;11.44;85.27
43161;BME280;40968;52.342;5.528;2023-03-24T00:52:51;99623.59;;;11.24;85.16
43161;BME280;40968;52.342;5.528;2023-03-24T00:55:19;99647.94;;;11.41;85.24
43161;BME280;40968;52.342;5.528;2023-03-24T00:57:46;99523.78;;;10.75;85.31
43161;BME280;40968;52.342;5.528;2023-03-24T01:00:16;99549.69;;;10.84;85.40
43161;BME280;40968;52.342;5.528;2023-03-24T01:02:46;99521.88;;;10.57;85.43
43161;BME280;40968;52.342;5.528;2023-03-24T01:05:13;99581.88;;;11.12;85.59
43161;BME280;40968;52.342;5.528;2023-03-24T01:07:41;99631.84;;;11.41;85.49
43161;BME280;40968;52.342;5.528;2023-03-24T01:10:11;99573.81;;;11.12;85.23
43161;BME280;40968;52.342;5.528;2023-03-24T01:12:39;99525.97;;;10.89;85.30
43161;BME280;40968;52.342;5.528;2023-03-24T01:15:08;99579.66;;;10.98;85.39
43161;BME280;40968;52.342;5.528;2023-03-24T01:17:37;99631.25;;;11.47;85.53
43161;BME280;40968;52.342;5.528;2023-03-24T01:20:05;99521.50;;;10.80;85.14
43161;BME280;40968;52.342;5.528;2023-03-24T01:22:36;99579.78;;;11.34;85.29
43161;BME280;40968;52.342;5.528;2023-03-24T01:25:05;99550.78;;;11.19;85.10
43161;BME280;40968;52.342;5.528;2023-03-24T01:27:32;99603.13;;;11.51;85.30
43161;BME280;40968;52.342;5.528;2023-03-24T01:30:00;99528.47;;;11.01;85.02
43161;BME280;40968;52.342;5.528;2023-03-24T01:32:28;99566.69;;;11.31;85.15
43161;BME280;40968;52.342;5.528;2023-03-24T01:34:55;99604.50;;;11.55;85.18
43161;BME280;40968;52.342;5.528;2023-03-24T01:37:22;99534.25;;;11.24;85.29
43161;BME280;40968;52.342;5.528;2023-03-24T01:39:49;99603.81;;;11.53;85.23
43161;BME280;40968;52.342;5.528;2023-03-24T01:42:17;99551.44;;;11.31;85.32
43161;BME280;40968;52.342;5.528;2023-03-24T01:44:45;99576.00;;;11.54;85.65
43161;BME280;40968;52.342;5.528;2023-03-24T01:47:13;99544.94;;;11.34;85.77
43161;BME280;40968;52.342;5.528;2023-03-24T01:49:44;99504.72;;;11.06;85.85
43161;BME280;40968;52.342;5.528;2023-03-24T01:52:15;99538.63;;;11.25;86.00
43161;BME280;40968;52.342;5.528;2023-03-24T01:54:45;99555.44;;;11.45;85.83
43161;BME280;40968;52.342;5.528;2023-03-24T01:57:17;99511.56;;;11.18;85.86
43161;BME280;40968;52.342;5.528;2023-03-24T01:59:49;99555.84;;;11.50;85.92
43161;BME280;40968;52.342;5.528;2023-03-24T02:02:18;99565.41;;;11.53;86.08
43161;BME280;40968;52.342;5.528;2023-03-24T02:04:49;99523.78;;;11.31;86.21
43161;BME280;40968;52.342;5.528;2023-03-24T02:07:24;99545.41;;;11.47;86.23
43161;BME280;40968;52.342;5.528;2023-03-24T02:09:55;99468.09;;;10.97;86.40
43161;BME280;40968;52.342;5.528;2023-03-24T02:12:22;99554.66;;;11.53;86.52
43161;BME280;40968;52.342;5.528;2023-03-24T02:14:49;99388.19;;;10.54;86.15
43161;BME280;40968;52.342;5.528;2023-03-24T02:17:34;99486.34;;;11.11;86.53
43161;BME280;40968;52.342;5.528;2023-03-24T02:20:31;99499.63;;;11.31;86.47
43161;BME280;40968;52.342;5.528;2023-03-24T02:26:28;99475.63;;;11.11;86.55
43161;BME280;40968;52.342;5.528;2023-03-24T02:29:15;99547.31;;;11.55;86.89
43161;BME280;40968;52.342;5.528;2023-03-24T02:32:19;99371.94;;;10.38;86.89
43161;BME280;40968;52.342;5.528;2023-03-24T02:38:17;99572.78;;;11.51;87.70
43161;BME280;40968;52.342;5.528;2023-03-24T02:40:55;99555.72;;;11.42;88.08
43161;BME280;40968;52.342;5.528;2023-03-24T02:43:32;99564.13;;;11.29;88.14
43161;BME280;40968;52.342;5.528;2023-03-24T02:46:08;99624.50;;;11.43;87.03
43161;BME280;40968;52.342;5.528;2023-03-24T02:48:44;99641.72;;;11.40;85.32
43161;BME280;40968;52.342;5.528;2023-03-24T02:51:16;99584.53;;;11.12;84.50
43161;BME280;40968;52.342;5.528;2023-03-24T02:53:54;99518.19;;;10.58;82.45
43161;BME280;40968;52.342;5.528;2023-03-24T02:56:26;99523.84;;;10.55;81.28
43161;BME280;40968;52.342;5.528;2023-03-24T02:58:59;99536.25;;;10.56;81.36
43161;BME280;40968;52.342;5.528;2023-03-24T03:01:31;99621.59;;;10.99;80.15
43161;BME280;40968;52.342;5.528;2023-03-24T03:04:02;99677.13;;;11.16;79.33
43161;BME280;40968;52.342;5.528;2023-03-24T03:06:34;99434.38;;;9.71;78.31
43161;BME280;40968;52.342;5.528;2023-03-24T03:09:07;99669.25;;;11.05;77.92
43161;BME280;40968;52.342;5.528;2023-03-24T03:11:37;99590.84;;;10.45;77.06
43161;BME280;40968;52.342;5.528;2023-03-24T03:14:08;99700.31;;;10.98;77.16
43161;BME280;40968;52.342;5.528;2023-03-24T03:16:39;99619.44;;;10.45;77.05
43161;BME280;40968;52.342;5.528;2023-03-24T03:19:13;99678.66;;;10.61;76.83
43161;BME280;40968;52.342;5.528;2023-03-24T03:21:43;99563.66;;;10.01;77.06
43161;BME280;40968;52.342;5.528;2023-03-24T03:24:13;99638.06;;;10.47;77.28
43161;BME280;40968;52.342;5.528;2023-03-24T03:26:44;99623.94;;;10.35;77.47
43161;BME280;40968;52.342;5.528;2023-03-24T03:29:14;99473.69;;;9.32;77.06
43161;BME280;40968;52.342;5.528;2023-03-24T03:31:46;99651.31;;;10.28;76.86
43161;BME280;40968;52.342;5.528;2023-03-24T03:34:21;99671.19;;;10.36;77.19
43161;BME280;40968;52.342;5.528;2023-03-24T03:36:55;99717.28;;;10.69;77.18
43161;BME280;40968;52.342;5.528;2023-03-24T03:39:26;99725.75;;;10.64;76.54
43161;BME280;40968;52.342;5.528;2023-03-24T03:41:56;99658.91;;;10.23;76.06
43161;BME280;40968;52.342;5.528;2023-03-24T03:44:22;99678.31;;;10.06;75.92
43161;BME280;40968;52.342;5.528;2023-03-24T03:46:49;99736.75;;;10.51;76.01
43161;BME280;40968;52.342;5.528;2023-03-24T03:49:16;99618.84;;;9.63;75.54
43161;BME280;40968;52.342;5.528;2023-03-24T03:51:43;99672.97;;;10.06;75.60
43161;BME280;40968;52.342;5.528;2023-03-24T03:54:11;99745.22;;;10.37;76.00
43161;BME280;40968;52.342;5.528;2023-03-24T03:56:40;99742.91;;;10.32;75.57
43161;BME280;40968;52.342;5.528;2023-03-24T03:59:20;99697.22;;;9.94;75.53
43161;BME280;40968;52.342;5.528;2023-03-24T04:01:48;99709.59;;;9.95;75.59
43161;BME280;40968;52.342;5.528;2023-03-24T04:04:28;99778.00;;;10.19;75.95
43161;BME280;40968;52.342;5.528;2023-03-24T04:07:09;99782.63;;;10.17;76.36
43161;BME280;40968;52.342;5.528;2023-03-24T04:09:48;99797.00;;;10.16;76.15
43161;BME280;40968;52.342;5.528;2023-03-24T04:12:33;99760.88;;;9.91;76.49
43161;BME280;40968;52.342;5.528;2023-03-24T04:15:25;99790.22;;;10.12;76.18
43161;BME280;40968;52.342;5.528;2023-03-24T04:18:07;99808.97;;;10.12;76.63
43161;BME280;40968;52.342;5.528;2023-03-24T04:20:42;99741.63;;;9.76;76.52
43161;BME280;40968;52.342;5.528;2023-03-24T04:23:18;99808.25;;;10.10;76.60
43161;BME280;40968;52.342;5.528;2023-03-24T04:25:53;99778.91;;;9.99;76.51
43161;BME280;40968;52.342;5.528;2023-03-24T04:28:29;99743.34;;;9.77;76.75
43161;BME280;40968;52.342;5.528;2023-03-24T04:31:03;99802.34;;;10.06;76.91
43161;BME280;40968;52.342;5.528;2023-03-24T04:33:38;99770.09;;;9.77;77.07
43161;BME280;40968;52.342;5.528;2023-03-24T04:36:11;99826.81;;;10.02;77.14
43161;BME280;40968;52.342;5.528;2023-03-24T04:38:44;99827.94;;;9.99;77.58
43161;BME280;40968;52.342;5.528;2023-03-24T04:41:13;99598.19;;;8.62;77.29
43161;BME280;40968;52.342;5.528;2023-03-24T04:43:43;99789.50;;;9.69;77.69
43161;BME280;40968;52.342;5.528;2023-03-24T04:46:13;99825.69;;;9.94;77.64
43161;BME280;40968;52.342;5.528;2023-03-24T04:48:42;99799.94;;;9.72;78.04
43161;BME280;40968;52.342;5.528;2023-03-24T04:51:10;99836.63;;;9.91;77.96
43161;BME280;40968;52.342;5.528;2023-03-24T04:53:37;99789.75;;;9.56;78.33
43161;BME280;40968;52.342;5.528;2023-03-24T04:56:11;99757.56;;;9.37;78.49
43161;BME280;40968;52.342;5.528;2023-03-24T04:58:43;99844.81;;;9.90;78.80
43161;BME280;40968;52.342;5.528;2023-03-24T05:01:10;99674.59;;;8.75;78.67
43161;BME280;40968;52.342;5.528;2023-03-24T05:03:39;99858.00;;;9.82;78.67
43161;BME280;40968;52.342;5.528;2023-03-24T05:06:08;99606.09;;;8.32;78.56
43161;BME280;40968;52.342;5.528;2023-03-24T05:08:36;99818.16;;;9.57;78.63
43161;BME280;40968;52.342;5.528;2023-03-24T05:11:03;99872.22;;;9.82;78.48
43161;BME280;40968;52.342;5.528;2023-03-24T05:13:30;99642.22;;;8.47;78.08
43161;BME280;40968;52.342;5.528;2023-03-24T05:15:57;99859.00;;;9.81;78.24
43161;BME280;40968;52.342;5.528;2023-03-24T05:18:24;99778.81;;;9.17;77.93
43161;BME280;40968;52.342;5.528;2023-03-24T05:20:52;99880.53;;;9.79;77.80
43161;BME280;40968;52.342;5.528;2023-03-24T05:23:19;99785.31;;;9.24;77.98
43161;BME280;40968;52.342;5.528;2023-03-24T05:25:46;99889.53;;;9.78;77.66
43161;BME280;40968;52.342;5.528;2023-03-24T05:28:12;99779.16;;;9.03;77.56
43161;BME280;40968;52.342;5.528;2023-03-24T05:30:39;99840.63;;;9.45;77.80
43161;BME280;40968;52.342;5.528;2023-03-24T05:33:06;99900.50;;;9.75;77.83
43161;BME280;40968;52.342;5.528;2023-03-24T05:35:33;99902.19;;;9.76;77.71
43161;BME280;40968;52.342;5.528;2023-03-24T05:38:01;99852.03;;;9.47;77.74
43161;BME280;40968;52.342;5.528;2023-03-24T05:40:27;99890.06;;;9.72;77.72
43161;BME280;40968;52.342;5.528;2023-03-24T05:42:54;99848.47;;;9.37;77.55
43161;BME280;40968;52.342;5.528;2023-03-24T05:45:21;99883.00;;;9.50;77.61
43161;BME280;40968;52.342;5.528;2023-03-24T05:47:49;99794.97;;;8.94;77.65
43161;BME280;40968;52.342;5.528;2023-03-24T05:50:16;99877.09;;;9.46;77.52
43161;BME280;40968;52.342;5.528;2023-03-24T05:52:43;99677.53;;;8.18;77.16
43161;BME280;40968;52.342;5.528;2023-03-24T05:55:12;99905.09;;;9.42;77.54
43161;BME280;40968;52.342;5.528;2023-03-24T05:57:40;99902.19;;;9.34;77.55
43161;BME280;40968;52.342;5.528;2023-03-24T06:00:09;99790.47;;;8.74;77.45
43161;BME280;40968;52.342;5.528;2023-03-24T06:02:41;99939.00;;;9.62;77.67
43161;BME280;40968;52.342;5.528;2023-03-24T06:05:09;99932.69;;;9.63;77.61
43161;BME280;40968;52.342;5.528;2023-03-24T06:07:36;99889.28;;;9.39;77.65
43161;BME280;40968;52.342;5.528;2023-03-24T06:10:03;99902.28;;;9.43;77.62
43161;BME280;40968;52.342;5.528;2023-03-24T06:12:33;99944.13;;;9.66;77.45
43161;BME280;40968;52.342;5.528;2023-03-24T06:14:59;99769.63;;;8.56;77.11
43161;BME280;40968;52.342;5.528;2023-03-24T06:17:28;99885.44;;;9.32;77.51
43161;BME280;40968;52.342;5.528;2023-03-24T06:19:55;99952.59;;;9.71;77.76
43161;BME280;40968;52.342;5.528;2023-03-24T06:22:27;99854.06;;;9.12;77.58
43161;BME280;40968;52.342;5.528;2023-03-24T06:24:54;99911.47;;;9.51;77.47
43161;BME280;40968;52.342;5.528;2023-03-24T06:27:23;99885.91;;;9.37;77.30
43161;BME280;40968;52.342;5.528;2023-03-24T06:29:55;99879.63;;;9.26;77.38
43161;BME280;40968;52.342;5.528;2023-03-24T06:32:22;99848.25;;;9.07;77.46
43161;BME280;40968;52.342;5.528;2023-03-24T06:34:49;99963.03;;;9.74;77.47
43161;BME280;40968;52.342;5.528;2023-03-24T06:37:16;99962.31;;;9.72;77.37
43161;BME280;40968;52.342;5.528;2023-03-24T06:39:44;99967.47;;;9.63;77.33
43161;BME280;40968;52.342;5.528;2023-03-24T06:42:10;99876.28;;;9.13;77.43
43161;BME280;40968;52.342;5.528;2023-03-24T06:44:37;99861.75;;;9.06;77.25
43161;BME280;40968;52.342;5.528;2023-03-24T06:47:05;99768.69;;;8.46;77.45
43161;BME280;40968;52.342;5.528;2023-03-24T06:49:32;99864.03;;;9.10;77.63
43161;BME280;40968;52.342;5.528;2023-03-24T06:52:01;99982.47;;;9.76;77.30
43161;BME280;40968;52.342;5.528;2023-03-24T06:54:28;99915.06;;;9.40;77.54
43161;BME280;40968;52.342;5.528;2023-03-24T06:56:55;99887.19;;;9.21;77.49
43161;BME280;40968;52.342;5.528;2023-03-24T06:59:22;99991.22;;;9.78;77.44
43161;BME280;40968;52.342;5.528;2023-03-24T07:01:49;99999.13;;;9.79;77.30
43161;BME280;40968;52.342;5.528;2023-03-24T07:04:18;99994.63;;;9.80;77.29
43161;BME280;40968;52.342;5.528;2023-03-24T07:06:45;99990.13;;;9.81;77.06
43161;BME280;40968;52.342;5.528;2023-03-24T07:09:11;100024.78;;;9.82;76.98
43161;BME280;40968;52.342;5.528;2023-03-24T07:11:38;99922.47;;;9.36;76.37
43161;BME280;40968;52.342;5.528;2023-03-24T07:14:05;99954.25;;;9.51;76.39
43161;BME280;40968;52.342;5.528;2023-03-24T07:16:32;100003.63;;;9.79;76.33
43161;BME280;40968;52.342;5.528;2023-03-24T07:19:00;99932.16;;;9.27;76.19
43161;BME280;40968;52.342;5.528;2023-03-24T07:21:28;100022.03;;;9.93;75.81
43161;BME280;40968;52.342;5.528;2023-03-24T07:23:55;100028.00;;;9.97;76.24
43161;BME280;40968;52.342;5.528;2023-03-24T07:26:21;99965.38;;;9.67;75.77
43161;BME280;40968;52.342;5.528;2023-03-24T07:28:48;100031.69;;;10.06;75.68
43161;BME280;40968;52.342;5.528;2023-03-24T07:31:15;100037.50;;;10.11;75.42
43161;BME280;40968;52.342;5.528;2023-03-24T07:33:41;100011.47;;;10.13;74.72
43161;BME280;40968;52.342;5.528;2023-03-24T07:36:08;99980.53;;;9.78;73.98
43161;BME280;40968;52.342;5.528;2023-03-24T07:38:36;99983.19;;;9.78;73.80
43161;BME280;40968;52.342;5.528;2023-03-24T07:41:02;100031.19;;;10.12;73.46
43161;BME280;40968;52.342;5.528;2023-03-24T07:43:29;100065.06;;;10.23;72.82
43161;BME280;40968;52.342;5.528;2023-03-24T07:45:56;100021.31;;;10.12;72.60
43161;BME280;40968;52.342;5.528;2023-03-24T07:48:22;100053.97;;;10.27;72.72
43161;BME280;40968;52.342;5.528;2023-03-24T07:50:51;100049.59;;;10.26;72.39
43161;BME280;40968;52.342;5.528;2023-03-24T07:53:18;99819.13;;;8.72;71.63
43161;BME280;40968;52.342;5.528;2023-03-24T07:55:46;100062.84;;;10.28;70.79
43161;BME280;40968;52.342;5.528;2023-03-24T07:58:13;100068.06;;;10.29;71.46
43161;BME280;40968;52.342;5.528;2023-03-24T08:00:40;100061.75;;;10.31;70.50
43161;BME280;40968;52.342;5.528;2023-03-24T08:03:08;100072.44;;;10.31;70.90
43161;BME280;40968;52.342;5.528;2023-03-24T08:05:39;100068.53;;;10.35;71.32
43161;BME280;40968;52.342;5.528;2023-03-24T08:08:06;99841.63;;;8.90;70.97
43161;BME280;40968;52.342;5.528;2023-03-24T08:10:33;99985.03;;;9.77;71.11
43161;BME280;40968;52.342;5.528;2023-03-24T08:13:01;100051.19;;;10.08;71.32
43161;BME280;40968;52.342;5.528;2023-03-24T08:15:28;100086.78;;;10.41;71.84
43161;BME280;40968;52.342;5.528;2023-03-24T08:17:55;100037.38;;;10.12;71.63
43161;BME280;40968;52.342;5.528;2023-03-24T08:20:22;100088.97;;;10.47;71.74
43161;BME280;40968;52.342;5.528;2023-03-24T08:22:51;100090.38;;;10.51;71.76
43161;BME280;40968;52.342;5.528;2023-03-24T08:25:19;100055.94;;;10.25;71.29
43161;BME280;40968;52.342;5.528;2023-03-24T08:27:46;99990.19;;;9.90;71.63
43161;BME280;40968;52.342;5.528;2023-03-24T08:30:16;99930.13;;;9.62;71.23
43161;BME280;40968;52.342;5.528;2023-03-24T08:32:45;100097.63;;;10.60;70.79
43161;BME280;40968;52.342;5.528;2023-03-24T08:35:14;100056.38;;;10.31;70.62
43161;BME280;40968;52.342;5.528;2023-03-24T08:37:41;100063.44;;;10.32;70.65
43161;BME280;40968;52.342;5.528;2023-03-24T08:40:10;100096.19;;;10.56;70.14
43161;BME280;40968;52.342;5.528;2023-03-24T08:42:38;100029.81;;;10.18;70.37
43161;BME280;40968;52.342;5.528;2023-03-24T08:45:06;100097.19;;;10.55;70.70
43161;BME280;40968;52.342;5.528;2023-03-24T08:47:35;100138.41;;;10.64;70.36
43161;BME280;40968;52.342;5.528;2023-03-24T08:50:01;100064.38;;;10.42;69.98
43161;BME280;40968;52.342;5.528;2023-03-24T08:52:29;100107.41;;;10.71;70.27
43161;BME280;40968;52.342;5.528;2023-03-24T08:54:56;100092.53;;;10.57;68.54
43161;BME280;40968;52.342;5.528;2023-03-24T08:57:22;100015.13;;;10.12;67.25
43161;BME280;40968;52.342;5.528;2023-03-24T08:59:49;100112.78;;;10.71;67.80
43161;BME280;40968;52.342;5.528;2023-03-24T09:02:16;100062.81;;;10.39;67.52
43161;BME280;40968;52.342;5.528;2023-03-24T09:04:44;100127.38;;;10.88;67.91
43161;BME280;40968;52.342;5.528;2023-03-24T09:07:11;100056.72;;;10.58;68.10
43161;BME280;40968;52.342;5.528;2023-03-24T09:09:38;99964.59;;;9.98;67.25
43161;BME280;40968;52.342;5.528;2023-03-24T09:12:05;100084.03;;;10.73;67.55
43161;BME280;40968;52.342;5.528;2023-03-24T09:14:32;100024.84;;;10.34;67.56
43161;BME280;40968;52.342;5.528;2023-03-24T09:16:58;100068.47;;;10.67;67.84
43161;BME280;40968;52.342;5.528;2023-03-24T09:19:25;100061.84;;;10.71;66.84
43161;BME280;40968;52.342;5.528;2023-03-24T09:21:53;100133.66;;;11.30;67.00
43161;BME280;40968;52.342;5.528;2023-03-24T09:24:20;100101.25;;;11.11;65.51
43161;BME280;40968;52.342;5.528;2023-03-24T09:26:47;100095.75;;;11.13;63.58
43161;BME280;40968;52.342;5.528;2023-03-24T09:29:13;100101.31;;;11.31;63.87
43161;BME280;40968;52.342;5.528;2023-03-24T09:31:40;100149.28;;;11.65;63.92
43161;BME280;40968;52.342;5.528;2023-03-24T09:34:06;100126.53;;;11.69;64.01
43161;BME280;40968;52.342;5.528;2023-03-24T09:36:33;100144.50;;;11.78;64.24
43161;BME280;40968;52.342;5.528;2023-03-24T09:39:01;100121.75;;;11.73;63.65
43161;BME280;40968;52.342;5.528;2023-03-24T09:41:29;100127.50;;;11.58;63.56
43161;BME280;40968;52.342;5.528;2023-03-24T09:43:58;100053.94;;;11.61;64.02
43161;BME280;40968;52.342;5.528;2023-03-24T09:46:29;100050.81;;;11.66;62.70
43161;BME280;40968;52.342;5.528;2023-03-24T09:48:56;100147.66;;;12.23;62.11
43161;BME280;40968;52.342;5.528;2023-03-24T09:51:25;100069.59;;;11.66;61.47
43161;BME280;40968;52.342;5.528;2023-03-24T09:53:59;100149.78;;;12.19;61.27
43161;BME280;40968;52.342;5.528;2023-03-24T09:56:29;100145.41;;;12.18;61.35
43161;BME280;40968;52.342;5.528;2023-03-24T09:59:02;100149.94;;;12.27;61.84
43161;BME280;40968;52.342;5.528;2023-03-24T10:01:32;100137.63;;;12.35;60.84
43161;BME280;40968;52.342;5.528;2023-03-24T10:03:59;100156.97;;;12.48;60.07
43161;BME280;40968;52.342;5.528;2023-03-24T10:06:29;100114.56;;;12.32;61.06
43161;BME280;40968;52.342;5.528;2023-03-24T10:09:12;100056.63;;;12.10;59.49
43161;BME280;40968;52.342;5.528;2023-03-24T10:11:48;100099.28;;;12.33;59.38
43161;BME280;40968;52.342;5.528;2023-03-24T10:14:26;99992.47;;;11.68;59.25
43161;BME280;40968;52.342;5.528;2023-03-24T10:17:01;100070.06;;;12.10;59.04
43161;BME280;40968;52.342;5.528;2023-03-24T10:19:38;99906.91;;;11.25;59.10
43161;BME280;40968;52.342;5.528;2023-03-24T10:22:11;100106.94;;;12.37;59.71
43161;BME280;40968;52.342;5.528;2023-03-24T10:24:44;99860.88;;;10.81;60.17
43161;BME280;40968;52.342;5.528;2023-03-24T10:27:21;100151.16;;;12.63;60.17
43161;BME280;40968;52.342;5.528;2023-03-24T10:29:51;100161.44;;;12.77;60.69
43161;BME280;40968;52.342;5.528;2023-03-24T10:32:21;100192.44;;;12.81;59.18
43161;BME280;40968;52.342;5.528;2023-03-24T10:34:53;100179.44;;;12.67;59.10
43161;BME280;40968;52.342;5.528;2023-03-24T10:37:25;100142.13;;;12.54;58.92
43161;BME280;40968;52.342;5.528;2023-03-24T10:39:52;100166.84;;;12.77;58.26
43161;BME280;40968;52.342;5.528;2023-03-24T10:42:23;100130.09;;;12.58;57.78
43161;BME280;40968;52.342;5.528;2023-03-24T10:44:51;100096.28;;;12.55;56.28
43161;BME280;40968;52.342;5.528;2023-03-24T10:47:21;100061.44;;;12.16;56.19
43161;BME280;40968;52.342;5.528;2023-03-24T10:49:53;100181.28;;;12.76;55.98
43161;BME280;40968;52.342;5.528;2023-03-24T10:52:20;100185.91;;;12.84;56.25
43161;BME280;40968;52.342;5.528;2023-03-24T10:54:56;100189.69;;;13.01;55.37
43161;BME280;40968;52.342;5.528;2023-03-24T10:57:25;100175.97;;;13.04;55.82
43161;BME280;40968;52.342;5.528;2023-03-24T10:59:54;100081.69;;;12.68;55.44
43161;BME280;40968;52.342;5.528;2023-03-24T11:02:23;99994.69;;;12.11;56.40
43161;BME280;40968;52.342;5.528;2023-03-24T11:04:54;100185.91;;;13.41;55.48
43161;BME280;40968;52.342;5.528;2023-03-24T11:07:22;100157.72;;;13.07;56.02
43161;BME280;40968;52.342;5.528;2023-03-24T11:09:57;100173.47;;;13.30;56.40
43161;BME280;40968;52.342;5.528;2023-03-24T11:12:27;100173.22;;;13.23;56.91
43161;BME280;40968;52.342;5.528;2023-03-24T11:15:03;100101.16;;;12.89;56.96
43161;BME280;40968;52.342;5.528;2023-03-24T11:17:36;100111.09;;;12.79;56.74
43161;BME280;40968;52.342;5.528;2023-03-24T11:20:15;100114.06;;;12.76;56.52
43161;BME280;40968;52.342;5.528;2023-03-24T11:25:31;100138.22;;;12.86;56.02
43161;BME280;40968;52.342;5.528;2023-03-24T11:28:01;100178.88;;;13.20;55.66
43161;BME280;40968;52.342;5.528;2023-03-24T11:30:32;99933.09;;;11.90;55.97
43161;BME280;40968;52.342;5.528;2023-03-24T11:33:01;99980.81;;;12.26;55.32
43161;BME280;40968;52.342;5.528;2023-03-24T11:35:29;100156.50;;;13.85;55.52
43161;BME280;40968;52.342;5.528;2023-03-24T11:38:02;100161.19;;;14.01;53.80
43161;BME280;40968;52.342;5.528;2023-03-24T11:40:29;100077.66;;;13.47;53.10
43161;BME280;40968;52.342;5.528;2023-03-24T11:42:59;100175.97;;;13.97;52.74
43161;BME280;40968;52.342;5.528;2023-03-24T11:45:32;100117.09;;;13.38;52.58
43161;BME280;40968;52.342;5.528;2023-03-24T11:48:01;100182.06;;;13.71;53.09
43161;BME280;40968;52.342;5.528;2023-03-24T11:50:32;100174.13;;;13.80;53.38
43161;BME280;40968;52.342;5.528;2023-03-24T11:53:02;100138.28;;;13.51;53.85
43161;BME280;40968;52.342;5.528;2023-03-24T11:55:35;100182.63;;;13.75;54.27
43161;BME280;40968;52.342;5.528;2023-03-24T11:58:11;100088.19;;;13.31;53.83
43161;BME280;40968;52.342;5.528;2023-03-24T12:00:45;100187.19;;;13.74;53.86
43161;BME280;40968;52.342;5.528;2023-03-24T12:06:23;100001.41;;;13.01;52.65
43161;BME280;40968;52.342;5.528;2023-03-24T12:09:01;100071.13;;;13.50;52.57
43161;BME280;40968;52.342;5.528;2023-03-24T12:11:43;100124.88;;;13.87;51.31
43161;BME280;40968;52.342;5.528;2023-03-24T12:14:21;100140.00;;;13.88;52.29
43161;BME280;40968;52.342;5.528;2023-03-24T12:16:53;100184.59;;;14.55;51.41
43161;BME280;40968;52.342;5.528;2023-03-24T12:19:32;100185.38;;;14.47;52.27
43161;BME280;40968;52.342;5.528;2023-03-24T12:22:08;100144.72;;;14.22;52.11
43161;BME280;40968;52.342;5.528;2023-03-24T12:24:59;100048.19;;;13.64;51.21
43161;BME280;40968;52.342;5.528;2023-03-24T12:27:36;100109.59;;;13.78;52.36
43161;BME280;40968;52.342;5.528;2023-03-24T12:30:15;100138.03;;;13.90;52.33
43161;BME280;40968;52.342;5.528;2023-03-24T12:32:54;100174.75;;;14.27;52.29
43161;BME280;40968;52.342;5.528;2023-03-24T12:35:45;100180.66;;;14.13;52.79
43161;BME280;40968;52.342;5.528;2023-03-24T12:38:27;100155.25;;;13.98;53.58
43161;BME280;40968;52.342;5.528;2023-03-24T12:41:24;100130.88;;;13.99;51.54
43161;BME280;40968;52.342;5.528;2023-03-24T12:44:09;100055.53;;;13.89;51.17
43161;BME280;40968;52.342;5.528;2023-03-24T12:46:44;99929.16;;;13.34;50.95
43161;BME280;40968;52.342;5.528;2023-03-24T12:49:24;100054.53;;;14.35;49.80
43161;BME280;40968;52.342;5.528;2023-03-24T12:52:11;99957.88;;;13.87;49.82
43161;BME280;40968;52.342;5.528;2023-03-24T12:54:50;100106.03;;;14.50;49.73
43161;BME280;40968;52.342;5.528;2023-03-24T12:57:22;100114.13;;;14.32;50.37
43161;BME280;40968;52.342;5.528;2023-03-24T12:59:52;100161.72;;;14.41;51.30
43161;BME280;40968;52.342;5.528;2023-03-24T13:02:29;100165.72;;;14.37;50.52
43161;BME280;40968;52.342;5.528;2023-03-24T13:04:59;100092.75;;;14.12;50.83
43161;BME280;40968;52.342;5.528;2023-03-24T13:07:31;100158.41;;;14.47;50.55
43161;BME280;40968;52.342;5.528;2023-03-24T13:10:04;100158.59;;;14.90;49.04
43161;BME280;40968;52.342;5.528;2023-03-24T13:12:38;100158.97;;;14.69;49.83
43161;BME280;40968;52.342;5.528;2023-03-24T13:15:14;100141.47;;;14.37;49.85
43161;BME280;40968;52.342;5.528;2023-03-24T13:17:47;100157.38;;;14.84;49.05
43161;BME280;40968;52.342;5.528;2023-03-24T13:20:21;100153.63;;;15.12;49.17
43161;BME280;40968;52.342;5.528;2023-03-24T13:22:50;100150.69;;;15.66;48.60
43161;BME280;40968;52.342;5.528;2023-03-24T13:25:22;100122.66;;;15.67;47.95
43161;BME280;40968;52.342;5.528;2023-03-24T13:27:55;100158.91;;;16.07;47.38
43161;BME280;40968;52.342;5.528;2023-03-24T13:30:29;100103.06;;;15.65;46.80